Rock Creek, Oregon
Current Conditions -  °F | °C
As of 4:53 AM on Thursday 23 Oct 2014 (Local Time) from KHIO Reporting Station
Light Rain Light Rain  
Wind Chill: 53°   Ceiling: 7000
Heat Index: 53°   Visibility: 8mi
Dew Point: 53°   Wind: 8mph
Humidity: 100%   Direction: 100°E
Pressure: 29.74"   Gusts: NA
Location:  45.5526°N, 122.821°W
Report Text: KHIO 231153Z AUTO 10007KT 8SM -RA OVC070 12/12 A2974 RMK AO2 SLP070 P0007 60018 70138 T01170117 10122 20111 58010 TSNO
Loading
Personal Weather Stations






























Interactive Weather Map
Tropical Storm Tracking
New forecast layout! Learn more

10-Day Weather Forecast

Advertisements
Track Severe Weather on mobile